KBOS

General Edward Lawrence Logan International Airport

Boston, Massachusetts, USA
METAR KBOS 201654Z 25011G18KT 10SM SCT030 SCT250 18/08 A2961 RMK AO2 SLP025 T01780083
Observed Flight Rules
Oct-20 @ 16:54 UTC (17 minutes ago) Visual Flight Rules
Wind Visibility Clouds
250° at 11 knots
 Gusting to 18 knots
10 miles
  • Scattered at 3,000' AGL
  • Scattered at 25,000' AGL
Temperatures Readings
Current 18°C / 64°F
Dewpoint 8°C / 46°F
Humidity 52%
Altimeter 29.61" Hg
Pressure 1002.5 hPa
Elevation 6
METAR KBOS 201654Z 25011G18KT 10SM SCT030 SCT250 18/08 A2961 RMK AO2 SLP025 T01780083
Observed Flight Rules
Oct-20 @ 16:54 UTC
(17 minutes ago)
VFR
Wind Visibility
250° at 11 knots
 Gusting to 18 knots
10 miles
Clouds
  • Scattered at 3,000' AGL
  • Scattered at 25,000' AGL
Temperature Dewpoint
18°C / 64°F 8°C / 46°F
Humidity Altimeter Pressure
52% 29.61" Hg 1002.5 hPa